Time;durP1;ratioP1;P1;durP2;ratioP2;P2;SDS_P1;SDS_P2;PMS_P1;PMS_P2;Temp;Humidity;BMP_temperature;BMP_pressure;BME280_temperature;BME280_humidity;BME280_pressure;Samples;Min_cycle;Max_cycle;Signal;HPM_P1;HPM_P2
2023/05/24 00:00:32;;;;;;;1999.90;999.90;;;12.80;80.70;;;;;;5033423;28;20026;-90
2023/05/24 00:02:58;;;;;;;1999.90;999.90;;;12.80;81.40;;;;;;5036510;28;20168;-88
2023/05/24 00:05:23;;;;;;;1999.90;999.90;;;12.80;81.00;;;;;;5051535;28;20030;-89
2023/05/24 00:07:49;;;;;;;1999.90;999.90;;;12.90;81.00;;;;;;5033516;28;20390;-88
2023/05/24 00:10:15;;;;;;;1999.90;999.90;;;12.80;81.00;;;;;;5029755;28;20033;-90
2023/05/24 00:12:41;;;;;;;1999.90;999.90;;;12.80;80.80;;;;;;5034067;28;20048;-90
2023/05/24 00:15:07;;;;;;;1999.90;999.90;;;12.70;81.30;;;;;;5015241;28;20040;-89
2023/05/24 00:17:39;;;;;;;1999.90;999.90;;;12.70;81.00;;;;;;5020923;28;20111;-91
2023/05/24 00:20:10;;;;;;;1999.90;999.90;;;12.70;81.80;;;;;;5031552;28;20053;-89
2023/05/24 00:22:37;;;;;;;1999.90;999.90;;;12.70;81.90;;;;;;5056137;28;20400;-90
2023/05/24 00:25:03;;;;;;;1999.90;999.90;;;12.80;81.50;;;;;;5033879;28;20097;-89
2023/05/24 00:27:29;;;;;;;1999.90;999.90;;;12.80;81.70;;;;;;5032558;28;20025;-89
2023/05/24 00:29:54;;;;;;;1999.90;999.90;;;12.70;81.80;;;;;;5022031;28;20043;-89
2023/05/24 00:32:20;;;;;;;1999.90;999.90;;;12.70;82.40;;;;;;5036902;28;20140;-88
2023/05/24 00:34:46;;;;;;;1999.90;999.90;;;12.70;81.80;;;;;;5035211;28;20116;-89
2023/05/24 00:37:11;;;;;;;1999.90;999.90;;;12.80;81.30;;;;;;5034042;28;20065;-89
2023/05/24 00:39:37;;;;;;;1999.90;999.90;;;12.80;81.50;;;;;;5034153;28;20030;-89
2023/05/24 00:42:03;;;;;;;1999.90;999.90;;;12.80;80.80;;;;;;5039195;28;20037;-89
2023/05/24 00:44:30;;;;;;;1999.90;999.90;;;12.60;81.30;;;;;;5035160;28;20030;-88
2023/05/24 00:46:55;;;;;;;1999.90;999.90;;;12.60;81.70;;;;;;5034708;28;20053;-88
2023/05/24 00:49:22;;;;;;;1999.90;999.90;;;12.60;81.80;;;;;;5033525;28;20083;-89
2023/05/24 00:51:48;;;;;;;1999.90;999.90;;;12.50;82.10;;;;;;5034977;28;20045;-88
2023/05/24 00:54:14;;;;;;;1999.90;999.90;;;12.50;81.70;;;;;;5039372;28;20044;-88
2023/05/24 00:56:41;;;;;;;1999.90;999.90;;;12.50;82.00;;;;;;5037378;28;20673;-89
2023/05/24 00:59:08;;;;;;;1999.90;999.90;;;12.50;81.80;;;;;;5032017;28;20108;-88
2023/05/24 01:01:34;;;;;;;1066.28;561.67;;;12.50;82.00;;;;;;5037157;28;20029;-89
2023/05/24 01:04:00;;;;;;;1999.90;999.90;;;12.40;82.10;;;;;;5051059;28;20025;-88
2023/05/24 01:06:27;;;;;;;1999.90;999.90;;;12.30;81.90;;;;;;5034819;28;20127;-88
2023/05/24 01:09:27;;;;;;;1999.90;999.90;;;12.40;82.10;;;;;;5038691;28;20033;-89
2023/05/24 01:12:28;;;;;;;1999.90;999.90;;;12.20;82.20;;;;;;5024872;28;20044;-89
2023/05/24 01:15:07;;;;;;;1131.85;622.25;;;12.40;83.10;;;;;;5033929;28;20055;-89
2023/05/24 01:18:15;;;;;;;1999.90;999.90;;;12.40;82.30;;;;;;5035869;28;20021;-90
2023/05/24 01:20:42;;;;;;;1999.90;999.90;;;12.40;82.40;;;;;;5038616;28;20052;-90
2023/05/24 01:23:35;;;;;;;1999.90;999.90;;;12.40;81.90;;;;;;5031467;28;20032;-91
2023/05/24 01:26:17;;;;;;;1999.90;999.90;;;12.40;82.10;;;;;;5035248;28;20052;-90
2023/05/24 01:28:45;;;;;;;1999.90;999.90;;;12.50;82.00;;;;;;5036866;28;20535;-90
2023/05/24 01:31:13;;;;;;;1999.90;999.90;;;12.40;82.60;;;;;;5034235;28;20037;-90
2023/05/24 01:33:43;;;;;;;1999.90;999.90;;;12.30;81.90;;;;;;5038249;28;20026;-88
2023/05/24 01:36:08;;;;;;;1999.90;999.90;;;12.30;82.10;;;;;;5034077;28;20091;-89
2023/05/24 01:38:35;;;;;;;1999.90;999.90;;;12.30;81.90;;;;;;5037508;28;20033;-89
2023/05/24 01:41:13;;;;;;;1999.90;999.90;;;12.30;82.20;;;;;;5035116;28;20029;-91
2023/05/24 01:43:47;;;;;;;1999.90;999.90;;;12.30;81.80;;;;;;5026632;28;20025;-90
2023/05/24 01:46:26;;;;;;;1999.90;999.90;;;12.20;81.90;;;;;;5036593;28;20072;-89
2023/05/24 01:49:15;;;;;;;1999.90;999.90;;;12.20;82.40;;;;;;5032696;28;20029;-89
2023/05/24 01:51:53;;;;;;;1999.90;999.90;;;12.20;82.30;;;;;;5033142;28;20029;-88
2023/05/24 01:54:24;;;;;;;1999.90;999.90;;;12.10;83.00;;;;;;5033420;28;20052;-88
2023/05/24 01:56:54;;;;;;;673.05;410.83;;;12.20;82.60;;;;;;5031957;28;20030;-89
2023/05/24 01:59:22;;;;;;;1999.90;999.90;;;12.20;82.20;;;;;;5035078;28;20051;-88
2023/05/24 02:01:49;;;;;;;217.57;201.43;;;12.20;83.00;;;;;;5032432;28;20027;-88
2023/05/24 02:04:16;;;;;;;1999.90;999.90;;;12.30;82.60;;;;;;5034329;28;20365;-89
2023/05/24 02:06:41;;;;;;;309.88;287.20;;;12.20;82.90;;;;;;5038543;28;20072;-89
2023/05/24 02:09:07;;;;;;;1999.90;999.90;;;12.10;83.20;;;;;;5032138;28;20555;-88
2023/05/24 02:11:33;;;;;;;680.00;417.80;;;12.10;82.90;;;;;;5031948;28;20476;-89
2023/05/24 02:13:58;;;;;;;500.58;467.58;;;12.00;82.80;;;;;;5034672;28;20485;-90
2023/05/24 02:16:25;;;;;;;1999.90;999.90;;;12.00;82.80;;;;;;5030496;28;20022;-89
2023/05/24 02:18:51;;;;;;;1999.90;999.90;;;12.00;82.70;;;;;;5032994;28;20463;-89
2023/05/24 02:21:17;;;;;;;1999.90;999.90;;;11.90;83.50;;;;;;5031464;28;20048;-89
2023/05/24 02:23:43;;;;;;;1999.90;999.90;;;11.80;83.00;;;;;;5039248;28;20116;-89
2023/05/24 02:26:10;;;;;;;1999.90;999.90;;;11.90;82.70;;;;;;5035416;28;20120;-88
2023/05/24 02:28:36;;;;;;;1999.90;999.90;;;11.90;82.10;;;;;;5029846;28;20091;-88
2023/05/24 02:31:02;;;;;;;1123.57;614.78;;;11.90;81.30;;;;;;5034252;28;20505;-89
2023/05/24 02:33:28;;;;;;;1999.90;999.90;;;11.90;80.10;;;;;;5036185;28;20091;-88
2023/05/24 02:35:55;;;;;;;1999.90;999.90;;;11.90;79.60;;;;;;5033227;28;20033;-88
2023/05/24 02:38:21;;;;;;;412.52;384.35;;;11.70;79.80;;;;;;5034217;28;20029;-89
2023/05/24 02:40:47;;;;;;;1999.90;999.90;;;11.70;79.70;;;;;;5031527;28;20032;-88
2023/05/24 02:43:13;;;;;;;1999.90;999.90;;;11.70;78.70;;;;;;5045624;28;20029;-88
2023/05/24 02:45:38;;;;;;;1999.90;999.90;;;11.60;78.10;;;;;;5035373;28;20079;-88
2023/05/24 02:48:04;;;;;;;1999.90;999.90;;;11.50;77.80;;;;;;5052340;28;20033;-88
2023/05/24 02:50:30;;;;;;;1999.90;999.90;;;11.60;77.60;;;;;;5050165;28;20052;-89
2023/05/24 02:52:56;;;;;;;1999.90;999.90;;;11.60;78.60;;;;;;5033576;28;20025;-89
2023/05/24 02:55:22;;;;;;;1999.90;999.90;;;11.40;78.60;;;;;;5033484;28;20036;-90
2023/05/24 02:57:47;;;;;;;1999.90;999.90;;;11.40;79.10;;;;;;5035496;28;20830;-89
2023/05/24 03:00:14;;;;;;;1514.72;763.72;;;11.40;78.70;;;;;;5030288;28;20520;-89
2023/05/24 03:02:40;;;;;;;670.50;408.40;;;11.30;78.70;;;;;;5031933;28;20083;-89
2023/05/24 03:05:07;;;;;;;1999.90;999.90;;;11.30;78.80;;;;;;5030705;28;20480;-88
2023/05/24 03:07:33;;;;;;;1999.90;999.90;;;11.20;79.60;;;;;;5034590;28;20417;-89
2023/05/24 03:09:59;;;;;;;1999.90;999.90;;;11.20;79.70;;;;;;5033852;28;20079;-89
2023/05/24 03:12:24;;;;;;;1999.90;999.90;;;11.20;80.00;;;;;;5034304;28;20034;-89
2023/05/24 03:14:50;;;;;;;1999.90;999.90;;;11.10;80.10;;;;;;5028342;28;20033;-90
2023/05/24 03:17:15;;;;;;;1054.35;551.20;;;11.20;80.20;;;;;;5033542;28;20044;-89
2023/05/24 03:19:41;;;;;;;1999.90;999.90;;;11.10;80.00;;;;;;5032812;28;20053;-90
2023/05/24 03:22:07;;;;;;;1999.90;999.90;;;11.10;80.00;;;;;;5037190;28;20025;-90
2023/05/24 03:24:33;;;;;;;1999.90;999.90;;;11.10;80.20;;;;;;5032387;28;20049;-89
2023/05/24 03:26:59;;;;;;;1999.90;999.90;;;11.00;80.50;;;;;;5032506;28;20057;-88
2023/05/24 03:29:25;;;;;;;1999.90;999.90;;;10.90;80.80;;;;;;5042696;28;20032;-88
2023/05/24 03:31:51;;;;;;;1999.90;999.90;;;10.90;80.40;;;;;;5035449;28;20032;-88
2023/05/24 03:34:16;;;;;;;1999.90;999.90;;;10.90;80.50;;;;;;5038117;28;20033;-89
2023/05/24 03:36:42;;;;;;;1999.90;999.90;;;10.90;80.60;;;;;;5041001;28;20056;-88
2023/05/24 03:39:08;;;;;;;1999.90;999.90;;;10.90;80.80;;;;;;5034799;28;20409;-89
2023/05/24 03:41:34;;;;;;;1999.90;999.90;;;10.90;81.00;;;;;;5038459;28;20022;-88
2023/05/24 03:44:00;;;;;;;1999.90;999.90;;;10.80;81.20;;;;;;5020650;28;20022;-89
2023/05/24 03:46:25;;;;;;;1999.90;999.90;;;10.90;81.30;;;;;;5034376;28;20049;-89
2023/05/24 03:48:51;;;;;;;1999.90;999.90;;;10.80;81.50;;;;;;5037475;28;20022;-89
2023/05/24 03:51:16;;;;;;;1999.90;999.90;;;10.70;81.60;;;;;;5052665;28;20041;-89
2023/05/24 03:53:42;;;;;;;1999.90;999.90;;;10.60;81.70;;;;;;5037791;28;20037;-89
2023/05/24 03:56:08;;;;;;;1999.90;999.90;;;10.60;81.80;;;;;;5038364;28;20560;-89
2023/05/24 03:58:34;;;;;;;1999.90;999.90;;;10.60;81.60;;;;;;5013919;28;20029;-89
2023/05/24 04:01:00;;;;;;;1999.90;999.90;;;10.70;81.30;;;;;;5036383;28;20029;-88
2023/05/24 04:03:26;;;;;;;1999.90;999.90;;;10.70;81.60;;;;;;5032956;28;20060;-88
2023/05/24 04:05:52;;;;;;;320.42;301.70;;;10.70;81.40;;;;;;5034618;28;20115;-90
2023/05/24 04:08:18;;;;;;;1999.90;999.90;;;10.70;81.20;;;;;;5034238;28;20036;-88
2023/05/24 04:10:44;;;;;;;1999.90;999.90;;;10.70;81.60;;;;;;5032862;28;20038;-89
2023/05/24 04:13:09;;;;;;;1999.90;999.90;;;10.70;81.40;;;;;;5031136;28;20084;-89
2023/05/24 04:15:36;;;;;;;1039.22;536.70;;;10.70;80.90;;;;;;5035000;28;20266;-88
2023/05/24 04:18:02;;;;;;;1999.90;999.90;;;10.70;80.90;;;;;;5031054;28;20029;-88
2023/05/24 04:20:28;;;;;;;1033.25;530.90;;;10.70;81.40;;;;;;5033115;28;20050;-88
2023/05/24 04:22:55;;;;;;;1999.90;999.90;;;10.80;80.30;;;;;;5033863;28;20025;-89
2023/05/24 04:25:20;;;;;;;1999.90;999.90;;;10.80;80.50;;;;;;5043694;28;20026;-89
2023/05/24 04:27:49;;;;;;;1133.43;624.92;;;10.70;79.90;;;;;;5030821;28;20087;-89
2023/05/24 04:30:15;;;;;;;1516.38;765.28;;;10.80;80.60;;;;;;5033094;28;20032;-89
2023/05/24 04:32:45;;;;;;;1999.90;999.90;;;10.70;79.50;;;;;;5033858;28;20033;-89
2023/05/24 04:35:11;;;;;;;1999.90;999.90;;;10.70;79.10;;;;;;5038371;28;20025;-89
2023/05/24 04:37:36;;;;;;;1999.90;999.90;;;10.70;79.00;;;;;;5035892;28;20022;-89
2023/05/24 04:40:06;;;;;;;321.65;305.50;;;10.80;79.20;;;;;;5035367;28;20575;-93
2023/05/24 04:42:33;;;;;;;314.70;293.98;;;10.70;79.30;;;;;;5037868;28;20025;-86
2023/05/24 04:44:59;;;;;;;1999.90;999.90;;;10.60;80.30;;;;;;5033808;28;20035;-86
2023/05/24 04:47:24;;;;;;;1999.90;999.90;;;10.70;79.90;;;;;;5039568;28;20025;-86
2023/05/24 04:49:50;;;;;;;1999.90;999.90;;;10.70;79.90;;;;;;5038439;28;20057;-87
2023/05/24 04:52:17;;;;;;;1999.90;999.90;;;10.80;78.60;;;;;;5032985;28;20033;-87
2023/05/24 04:54:42;;;;;;;1999.90;999.90;;;10.70;79.50;;;;;;5016894;28;20065;-87
2023/05/24 04:57:08;;;;;;;1999.90;999.90;;;10.80;78.70;;;;;;5030796;28;20065;-86
2023/05/24 04:59:34;;;;;;;1999.90;999.90;;;10.80;78.80;;;;;;5030575;28;20044;-85
2023/05/24 05:02:00;;;;;;;1999.90;999.90;;;10.80;79.30;;;;;;5028602;28;20367;-85
2023/05/24 05:04:25;;;;;;;1999.90;999.90;;;10.90;78.80;;;;;;5034709;28;20034;-85
2023/05/24 05:06:51;;;;;;;1999.90;999.90;;;10.90;78.90;;;;;;5035230;28;20036;-84
2023/05/24 05:09:17;;;;;;;1999.90;999.90;;;10.90;79.10;;;;;;5046851;28;20109;-85
2023/05/24 05:11:45;;;;;;;1999.90;999.90;;;11.10;78.70;;;;;;5033008;28;20040;-85
2023/05/24 05:14:11;;;;;;;1999.90;999.90;;;10.90;79.50;;;;;;5030452;28;20119;-84
2023/05/24 05:16:37;;;;;;;1534.10;782.10;;;10.90;79.20;;;;;;5031144;28;20511;-84
2023/05/24 05:19:03;;;;;;;1999.90;999.90;;;11.00;78.10;;;;;;5034318;28;20045;-83
2023/05/24 05:21:31;;;;;;;1999.90;999.90;;;11.00;79.00;;;;;;5033349;28;20401;-83
2023/05/24 05:24:01;;;;;;;617.45;361.52;;;11.00;77.10;;;;;;5032174;28;20028;-83
2023/05/24 05:26:27;;;;;;;1999.90;999.90;;;11.00;75.80;;;;;;5015619;28;20070;-83
2023/05/24 05:28:53;;;;;;;1999.90;999.90;;;10.90;77.30;;;;;;5033979;28;20018;-84
2023/05/24 05:31:19;;;;;;;1999.90;999.90;;;11.00;76.30;;;;;;5031097;28;20029;-83
2023/05/24 05:33:45;;;;;;;1999.90;999.90;;;11.10;75.40;;;;;;5036230;28;20033;-84
2023/05/24 05:36:11;;;;;;;1999.90;999.90;;;11.10;75.90;;;;;;5034887;28;20021;-83
2023/05/24 05:38:36;;;;;;;1999.90;999.90;;;11.20;75.30;;;;;;5036434;28;20511;-86
2023/05/24 05:41:02;;;;;;;1999.90;999.90;;;11.30;74.90;;;;;;5015093;28;20030;-85
2023/05/24 05:43:28;;;;;;;1999.90;999.90;;;11.30;74.60;;;;;;5033923;28;20033;-85
2023/05/24 05:45:54;;;;;;;1999.90;999.90;;;11.50;73.80;;;;;;5034176;28;20034;-86
2023/05/24 05:48:20;;;;;;;1999.90;999.90;;;11.40;74.30;;;;;;5036844;28;20017;-88
2023/05/24 05:50:46;;;;;;;1999.90;999.90;;;11.50;73.50;;;;;;5056414;28;20036;-86
2023/05/24 05:53:11;;;;;;;1999.90;999.90;;;11.90;71.70;;;;;;5036958;28;20547;-87
2023/05/24 05:55:37;;;;;;;1999.90;999.90;;;11.80;71.80;;;;;;5035568;28;20029;-86
2023/05/24 05:58:03;;;;;;;1999.90;999.90;;;11.70;71.50;;;;;;5039992;28;20039;-86
2023/05/24 06:00:28;;;;;;;1999.90;999.90;;;11.80;71.00;;;;;;5034244;28;20026;-87
2023/05/24 06:02:54;;;;;;;1999.90;999.90;;;11.80;71.10;;;;;;5037169;28;20028;-85
2023/05/24 06:05:20;;;;;;;1999.90;999.90;;;12.00;71.50;;;;;;5041369;28;20105;-85
2023/05/24 06:07:46;;;;;;;1999.90;999.90;;;11.90;70.70;;;;;;5033719;28;20097;-84
2023/05/24 06:10:12;;;;;;;1999.90;999.90;;;11.70;70.80;;;;;;5033455;28;20508;-86
2023/05/24 06:12:39;;;;;;;1999.90;999.90;;;11.80;71.60;;;;;;5034111;28;20030;-85
2023/05/24 06:15:06;;;;;;;1999.90;999.90;;;11.80;71.20;;;;;;5040080;28;20068;-86
2023/05/24 06:17:33;;;;;;;1999.90;999.90;;;11.90;71.30;;;;;;5042237;28;20025;-86
2023/05/24 06:19:59;;;;;;;1999.90;999.90;;;11.90;70.90;;;;;;5038882;28;20137;-86
2023/05/24 06:22:26;;;;;;;1999.90;999.90;;;12.10;70.80;;;;;;5036881;28;20133;-86
2023/05/24 06:24:52;;;;;;;1999.90;999.90;;;12.20;70.10;;;;;;5032593;28;20028;-85
2023/05/24 06:27:18;;;;;;;1999.90;999.90;;;12.00;70.70;;;;;;5030652;28;20447;-84
2023/05/24 06:29:44;;;;;;;1999.90;999.90;;;11.80;71.00;;;;;;5032887;28;20041;-86
2023/05/24 06:32:10;;;;;;;1999.90;999.90;;;12.00;71.70;;;;;;5031181;28;20109;-86
2023/05/24 06:34:36;;;;;;;1999.90;999.90;;;12.00;70.20;;;;;;5029507;28;20029;-87
2023/05/24 06:37:02;;;;;;;1999.90;999.90;;;12.10;70.80;;;;;;5032757;28;20025;-85
2023/05/24 06:39:28;;;;;;;1999.90;999.90;;;12.20;69.50;;;;;;5032883;28;20489;-85
2023/05/24 06:41:53;;;;;;;1999.90;999.90;;;12.10;70.00;;;;;;5034211;28;20052;-85
2023/05/24 06:44:20;;;;;;;1999.90;999.90;;;12.00;69.80;;;;;;5031154;28;20029;-85
2023/05/24 06:46:47;;;;;;;1999.90;999.90;;;12.20;70.60;;;;;;5030774;28;20504;-85
2023/05/24 06:49:12;;;;;;;1999.90;999.90;;;11.80;69.90;;;;;;5031362;28;20034;-87
2023/05/24 06:51:38;;;;;;;1999.90;999.90;;;11.70;70.60;;;;;;5034697;28;20116;-85
2023/05/24 06:54:03;;;;;;;1999.90;999.90;;;11.70;70.30;;;;;;5030458;28;20440;-86
2023/05/24 06:56:29;;;;;;;1999.90;999.90;;;11.70;70.30;;;;;;5034128;28;20045;-85
2023/05/24 06:58:55;;;;;;;1999.90;999.90;;;11.60;70.80;;;;;;5032915;28;20490;-86
2023/05/24 07:01:21;;;;;;;1999.90;999.90;;;11.60;70.80;;;;;;5029310;28;20049;-86
2023/05/24 07:03:47;;;;;;;1999.90;999.90;;;11.70;70.60;;;;;;5033068;28;20036;-87
2023/05/24 07:06:14;;;;;;;1999.90;999.90;;;11.80;70.60;;;;;;5032964;28;20033;-85
2023/05/24 07:08:40;;;;;;;1999.90;999.90;;;11.70;69.90;;;;;;5051208;28;20515;-86
2023/05/24 07:11:07;;;;;;;1999.90;999.90;;;11.50;70.50;;;;;;5031568;28;20049;-85
2023/05/24 07:13:33;;;;;;;1999.90;999.90;;;11.60;70.50;;;;;;5031273;28;20056;-85
2023/05/24 07:15:58;;;;;;;1999.90;999.90;;;11.80;69.90;;;;;;5035562;28;20737;-84
2023/05/24 07:18:24;;;;;;;1999.90;999.90;;;11.80;68.60;;;;;;5033194;28;20125;-84
2023/05/24 07:20:50;;;;;;;1999.90;999.90;;;11.90;68.60;;;;;;5018400;28;20076;-85
2023/05/24 07:23:16;;;;;;;1999.90;999.90;;;12.20;67.10;;;;;;5036043;28;20044;-85
2023/05/24 07:25:41;;;;;;;1999.90;999.90;;;12.40;66.30;;;;;;5036206;28;20037;-86
2023/05/24 07:28:07;;;;;;;1999.90;999.90;;;12.30;65.80;;;;;;5037769;28;20080;-84
2023/05/24 07:30:33;;;;;;;1999.90;999.90;;;12.10;67.30;;;;;;5037691;28;20492;-85
2023/05/24 07:32:59;;;;;;;1999.90;999.90;;;12.40;65.90;;;;;;5032038;28;20080;-86
2023/05/24 07:35:28;;;;;;;1999.90;999.90;;;12.70;65.20;;;;;;5047323;28;20029;-85
2023/05/24 07:37:53;;;;;;;1999.90;999.90;;;13.00;65.50;;;;;;5033044;28;20030;-85
2023/05/24 07:40:20;;;;;;;1999.90;999.90;;;12.90;66.50;;;;;;5034092;28;20416;-84
2023/05/24 07:42:46;;;;;;;1999.90;999.90;;;12.70;65.10;;;;;;5039699;28;20041;-85
2023/05/24 07:45:12;;;;;;;1999.90;999.90;;;13.10;64.90;;;;;;5035508;28;20067;-87
2023/05/24 07:47:38;;;;;;;1999.90;999.90;;;12.70;62.90;;;;;;5051666;28;20056;-85
2023/05/24 07:50:04;;;;;;;1999.90;999.90;;;12.70;64.90;;;;;;5014765;28;20030;-86
2023/05/24 07:52:30;;;;;;;1999.90;999.90;;;12.90;64.60;;;;;;5031411;28;20037;-84
2023/05/24 07:54:55;;;;;;;1999.90;999.90;;;12.80;65.00;;;;;;5016410;28;20043;-86
2023/05/24 07:57:21;;;;;;;1999.90;999.90;;;12.80;63.60;;;;;;5033584;28;20036;-86
2023/05/24 07:59:47;;;;;;;1999.90;999.90;;;12.80;64.20;;;;;;5050187;28;20033;-85
2023/05/24 08:02:14;;;;;;;1999.90;999.90;;;12.50;64.80;;;;;;5035903;28;20026;-84
2023/05/24 08:04:40;;;;;;;1999.90;999.90;;;12.70;64.20;;;;;;5031839;28;20752;-85
2023/05/24 08:07:06;;;;;;;1999.90;999.90;;;13.00;63.00;;;;;;5036981;28;20063;-85
2023/05/24 08:09:37;;;;;;;1999.90;999.90;;;13.10;62.40;;;;;;5036014;28;20034;-85
2023/05/24 08:12:03;;;;;;;;;;;13.10;61.90;;;;;;5035155;28;20029;-85
2023/05/24 08:14:29;;;;;;;1999.90;999.90;;;13.20;63.20;;;;;;5034132;28;20443;-86
2023/05/24 08:16:54;;;;;;;1999.90;999.90;;;13.40;63.50;;;;;;5038810;28;20043;-84
2023/05/24 08:19:20;;;;;;;1999.90;999.90;;;13.30;63.10;;;;;;5034150;28;20057;-85
2023/05/24 08:21:46;;;;;;;1999.90;999.90;;;13.20;64.80;;;;;;5036770;28;20037;-85
2023/05/24 08:24:12;;;;;;;1999.90;999.90;;;13.50;64.10;;;;;;5037553;28;20128;-86
2023/05/24 08:26:37;;;;;;;1999.90;999.90;;;13.60;63.80;;;;;;5036236;28;20112;-85
2023/05/24 08:29:03;;;;;;;1999.90;999.90;;;13.60;63.50;;;;;;5049834;28;20033;-85
2023/05/24 08:31:32;;;;;;;1999.90;999.90;;;13.60;62.50;;;;;;5033782;28;20039;-85
2023/05/24 08:33:58;;;;;;;1999.90;999.90;;;13.80;63.80;;;;;;5038062;28;20028;-85
2023/05/24 08:36:24;;;;;;;1999.90;999.90;;;14.30;62.50;;;;;;5036173;28;20037;-85
2023/05/24 08:38:49;;;;;;;1999.90;999.90;;;14.20;60.30;;;;;;5038297;28;20032;-86
2023/05/24 08:41:15;;;;;;;1999.90;999.90;;;14.20;61.70;;;;;;5034060;28;20729;-85
2023/05/24 08:43:41;;;;;;;1999.90;999.90;;;14.30;62.10;;;;;;5033290;28;20048;-86
2023/05/24 08:46:08;;;;;;;1999.90;999.90;;;14.20;60.10;;;;;;5038409;28;20044;-85
2023/05/24 08:48:43;;;;;;;1999.90;999.90;;;14.10;61.80;;;;;;5034405;28;20048;-86
2023/05/24 08:51:09;;;;;;;1999.90;999.90;;;14.50;59.20;;;;;;5022248;28;20035;-86
2023/05/24 08:53:37;;;;;;;1999.90;999.90;;;14.30;59.70;;;;;;5033811;28;20413;-86
2023/05/24 08:56:05;;;;;;;1999.90;999.90;;;14.40;61.80;;;;;;5032407;28;20118;-85
2023/05/24 08:58:30;;;;;;;1999.90;999.90;;;15.00;59.80;;;;;;5036415;28;20034;-85
2023/05/24 09:00:58;;;;;;;1999.90;999.90;;;15.10;58.70;;;;;;5035411;28;20422;-86
2023/05/24 09:03:25;;;;;;;1999.90;999.90;;;15.30;61.20;;;;;;5033501;28;20025;-85
2023/05/24 09:05:52;;;;;;;1999.90;999.90;;;15.50;59.20;;;;;;5030488;28;20025;-85
2023/05/24 09:08:19;;;;;;;1999.90;999.90;;;15.40;58.60;;;;;;5032598;28;20031;-85
2023/05/24 09:10:46;;;;;;;1999.90;999.90;;;15.20;57.60;;;;;;5036644;28;20037;-86
2023/05/24 09:13:14;;;;;;;1999.90;999.90;;;15.50;57.70;;;;;;5035274;28;20071;-84
2023/05/24 09:15:40;;;;;;;1999.90;999.90;;;15.30;57.70;;;;;;5033573;28;20530;-87
2023/05/24 09:18:05;;;;;;;1999.90;999.90;;;15.00;59.80;;;;;;5033052;28;20045;-85
2023/05/24 09:20:31;;;;;;;1999.90;999.90;;;15.10;61.10;;;;;;5033285;28;20049;-86
2023/05/24 09:23:01;;;;;;;1999.90;999.90;;;15.00;59.50;;;;;;5037161;28;20025;-86
2023/05/24 09:25:28;;;;;;;;;;;15.40;58.30;;;;;;5033476;28;20539;-85
2023/05/24 09:27:55;;;;;;;1999.90;999.90;;;15.80;57.60;;;;;;5033593;28;19912;-87
2023/05/24 09:30:21;;;;;;;1999.90;999.90;;;16.00;57.10;;;;;;5036684;28;20404;-85
2023/05/24 09:32:58;;;;;;;1999.90;999.90;;;15.70;59.20;;;;;;5032767;28;20119;-86
2023/05/24 09:35:27;;;;;;;1999.90;999.90;;;15.30;58.50;;;;;;5035021;28;20029;-86
2023/05/24 09:37:56;;;;;;;1999.90;999.90;;;15.60;58.00;;;;;;5037970;28;20029;-85
2023/05/24 09:40:22;;;;;;;1999.90;999.90;;;15.20;58.60;;;;;;5011866;28;20083;-87
2023/05/24 09:42:51;;;;;;;1999.90;999.90;;;15.00;59.20;;;;;;5033266;28;20022;-86
2023/05/24 09:45:17;;;;;;;1999.90;999.90;;;15.00;59.90;;;;;;5033576;28;20057;-85
2023/05/24 09:47:44;;;;;;;1999.90;999.90;;;15.20;58.00;;;;;;5032276;28;20515;-86
2023/05/24 09:50:15;;;;;;;1999.90;999.90;;;15.60;58.30;;;;;;5021128;28;20033;-86
2023/05/24 09:52:41;;;;;;;1999.90;999.90;;;15.70;57.10;;;;;;5032764;28;20029;-86
2023/05/24 09:55:18;;;;;;;1999.90;999.90;;;15.50;58.80;;;;;;5032315;28;20419;-86
2023/05/24 09:57:52;;;;;;;1999.90;999.90;;;15.00;59.80;;;;;;5019118;28;20037;-87
2023/05/24 10:00:24;;;;;;;1999.90;999.90;;;15.00;58.40;;;;;;5030988;28;20033;-86
2023/05/24 10:03:06;;;;;;;1999.90;999.90;;;15.50;58.20;;;;;;5040097;28;20105;-86
2023/05/24 10:05:32;;;;;;;1999.90;999.90;;;15.70;57.10;;;;;;5032012;28;20025;-85
2023/05/24 10:07:59;;;;;;;1999.90;999.90;;;15.40;57.90;;;;;;5035850;28;20387;-85
2023/05/24 10:10:30;;;;;;;1999.90;999.90;;;15.60;58.20;;;;;;5032452;28;20056;-87
2023/05/24 10:12:57;;;;;;;1999.90;999.90;;;15.30;57.10;;;;;;5030232;28;20025;-86
2023/05/24 10:15:24;;;;;;;1999.90;999.90;;;15.40;57.40;;;;;;5028739;28;20744;-85
2023/05/24 10:17:51;;;;;;;1999.90;999.90;;;15.00;57.50;;;;;;5031533;28;20116;-84
2023/05/24 10:20:17;;;;;;;1999.90;999.90;;;14.70;58.70;;;;;;5030196;28;20052;-85
2023/05/24 10:22:45;;;;;;;1999.90;999.90;;;15.00;60.00;;;;;;5028698;28;20112;-83
2023/05/24 10:25:18;;;;;;;1999.90;999.90;;;15.20;60.50;;;;;;5029123;28;20789;-83
2023/05/24 10:27:45;;;;;;;1999.90;999.90;;;14.90;59.10;;;;;;5045691;28;20420;-83
2023/05/24 10:30:22;;;;;;;1999.90;999.90;;;15.00;60.50;;;;;;5032761;28;20033;-85
2023/05/24 10:32:50;;;;;;;1999.90;999.90;;;15.00;60.40;;;;;;5027917;28;20099;-84
2023/05/24 10:35:18;;;;;;;1999.90;999.90;;;15.00;60.90;;;;;;5030295;28;20167;-85
2023/05/24 10:37:46;;;;;;;1999.90;999.90;;;15.10;59.00;;;;;;5036674;28;20437;-84
2023/05/24 10:40:25;;;;;;;1999.90;999.90;;;15.30;59.70;;;;;;5036171;28;20028;-85
2023/05/24 10:42:53;;;;;;;1999.90;999.90;;;15.40;60.70;;;;;;5036101;28;20036;-84
2023/05/24 10:45:22;;;;;;;1999.90;999.90;;;15.90;57.30;;;;;;5034082;28;20040;-83
2023/05/24 10:47:48;;;;;;;1999.90;999.90;;;15.90;58.50;;;;;;5054304;28;20033;-83
2023/05/24 10:50:17;;;;;;;1999.90;999.90;;;15.90;57.10;;;;;;5036181;28;20445;-83
2023/05/24 10:52:43;;;;;;;1999.90;999.90;;;16.30;55.20;;;;;;5032749;28;20041;-83
2023/05/24 10:55:10;;;;;;;1999.90;999.90;;;16.20;55.70;;;;;;5033399;28;20370;-84
2023/05/24 10:57:37;;;;;;;1999.90;999.90;;;15.60;56.00;;;;;;5037018;28;20034;-84
2023/05/24 11:00:27;;;;;;;1999.90;999.90;;;15.50;56.50;;;;;;5038032;28;20026;-83
2023/05/24 11:03:00;;;;;;;1999.90;999.90;;;15.50;59.50;;;;;;5038276;28;20017;-83
2023/05/24 11:05:35;;;;;;;1999.90;999.90;;;15.70;56.20;;;;;;5037015;28;20481;-83
2023/05/24 11:08:02;;;;;;;1999.90;999.90;;;15.60;56.60;;;;;;5031147;28;20115;-84
2023/05/24 11:10:34;;;;;;;1999.90;999.90;;;15.50;57.00;;;;;;5030724;28;20026;-85
2023/05/24 11:13:01;;;;;;;1999.90;999.90;;;15.30;57.00;;;;;;5027637;28;20120;-83
2023/05/24 11:15:28;;;;;;;1999.90;999.90;;;15.50;57.40;;;;;;5033817;28;20061;-84
2023/05/24 11:18:11;;;;;;;1999.90;999.90;;;15.40;58.00;;;;;;5035179;28;20033;-83
2023/05/24 11:20:37;;;;;;;1999.90;999.90;;;15.90;55.50;;;;;;5034521;28;20072;-84
2023/05/24 11:23:08;;;;;;;1999.90;999.90;;;16.50;55.20;;;;;;5036397;28;20405;-85
2023/05/24 11:25:36;;;;;;;;;;;16.10;56.90;;;;;;5038268;28;20091;-84
2023/05/24 11:28:03;;;;;;;1999.90;999.90;;;15.80;56.00;;;;;;5036464;28;19913;-85
2023/05/24 11:30:31;;;;;;;1999.90;999.90;;;15.60;56.90;;;;;;5028689;28;20120;-82
2023/05/24 11:32:57;;;;;;;1999.90;999.90;;;15.90;56.70;;;;;;5035840;28;20033;-83
2023/05/24 11:35:26;;;;;;;1999.90;999.90;;;15.60;56.30;;;;;;5034608;28;20033;-83
2023/05/24 11:37:53;;;;;;;1999.90;999.90;;;15.30;57.50;;;;;;5034711;28;20041;-83
2023/05/24 11:40:19;;;;;;;1999.90;999.90;;;15.10;57.50;;;;;;5034359;28;20083;-83
2023/05/24 11:42:45;;;;;;;1999.90;999.90;;;15.00;58.60;;;;;;5033730;28;20025;-83
2023/05/24 11:45:15;;;;;;;1999.90;999.90;;;15.10;56.60;;;;;;5032656;28;20025;-84
2023/05/24 11:47:40;;;;;;;1999.90;999.90;;;15.00;58.70;;;;;;5034324;28;20385;-87
2023/05/24 11:50:06;;;;;;;1999.90;999.90;;;15.30;57.70;;;;;;5034427;28;20043;-87
2023/05/24 11:52:36;;;;;;;1999.90;999.90;;;15.40;57.50;;;;;;5033235;28;20030;-88
2023/05/24 11:55:03;;;;;;;1999.90;999.90;;;15.70;56.30;;;;;;5025450;28;20034;-86
2023/05/24 11:57:39;;;;;;;1999.90;999.90;;;15.70;56.20;;;;;;5032661;28;20042;-89
2023/05/24 12:00:10;;;;;;;1999.90;999.90;;;15.90;55.60;;;;;;5033079;28;20034;-87
2023/05/24 12:02:36;;;;;;;;;;;16.50;53.00;;;;;;5032847;28;20068;-90